Time;durP1;ratioP1;P1;durP2;ratioP2;P2;SDS_P1;SDS_P2;PMS_P1;PMS_P2;Temp;Humidity;BMP_temperature;BMP_pressure;BME280_temperature;BME280_humidity;BME280_pressure;Samples;Min_cycle;Max_cycle;Signal;HPM_P1;HPM_P2
2021/05/18 00:01:26;;;;;;;7.10;6.50;;;;;;;10.43;85.08;100611.09;6263326;28;20306;-72
2021/05/18 00:04:30;;;;;;;6.82;6.43;;;;;;;10.32;85.84;100609.13;6263370;28;20241;-72
2021/05/18 00:07:35;;;;;;;;;;;;;;;10.28;85.98;100607.88;6263351;28;20260;-71
2021/05/18 00:14:01;;;;;;;;;;;;;;;10.49;84.15;100605.63;6263364;28;20112;-71
2021/05/18 00:17:05;;;;;;;;;;;;;;;10.24;85.96;100615.66;6264754;28;19924;-71
2021/05/18 00:20:13;;;;;;;6.50;6.00;;;;;;;10.46;84.31;100621.59;6263727;28;19916;-71
2021/05/18 00:23:16;;;;;;;6.53;6.13;;;;;;;10.33;84.95;100621.69;6263675;28;20223;-71
2021/05/18 00:26:20;;;;;;;7.25;6.72;;;;;;;10.45;84.11;100630.84;6262508;28;20414;-71
2021/05/18 00:29:24;;;;;;;7.75;6.95;;;;;;;10.44;84.31;100634.59;6263518;28;20188;-70
2021/05/18 00:32:28;;;;;;;8.18;7.38;;;;;;;10.11;85.33;100633.97;6262568;28;20208;-70
2021/05/18 00:35:32;;;;;;;9.25;8.18;;;;;;;10.28;84.85;100646.88;6263735;28;20184;-70
2021/05/18 00:38:37;;;;;;;8.25;7.45;;;;;;;10.46;83.58;100648.84;6262275;28;20216;-70
2021/05/18 00:41:41;;;;;;;10.38;8.57;;;;;;;10.09;86.21;100654.09;6262217;28;20188;-71
2021/05/18 00:44:46;;;;;;;11.05;8.60;;;;;;;10.18;86.65;100640.22;6262238;28;20412;-70
2021/05/18 00:47:49;;;;;;;13.13;8.73;;;;;;;10.08;86.91;100667.94;6263491;28;20185;-70
2021/05/18 00:50:57;;;;;;;10.05;8.23;;;;;;;10.15;87.00;100657.03;6261748;28;20220;-71
2021/05/18 00:54:03;;;;;;;8.18;7.47;;;;;;;10.12;87.11;100652.00;6261943;28;20467;-71
2021/05/18 01:00:37;;;;;;;6.75;6.25;;;;;;;10.06;86.18;100643.66;6263201;28;20227;-71
2021/05/18 01:03:41;;;;;;;6.95;6.35;;;;;;;10.05;86.29;100641.97;6344766;22;20230;-71
2021/05/18 01:06:44;;;;;;;7.18;6.57;;;;;;;10.08;86.38;100646.97;6361933;28;20468;-71
2021/05/18 01:09:48;;;;;;;6.95;6.45;;;;;;;10.04;86.68;100656.63;6362887;28;20182;-71
2021/05/18 01:12:52;;;;;;;7.57;6.78;;;;;;;10.09;86.43;100637.72;6362155;28;20231;-71
2021/05/18 01:15:56;;;;;;;9.40;7.22;;;;;;;10.06;86.41;100632.75;6362775;28;20186;-71
2021/05/18 01:19:00;;;;;;;7.93;7.18;;;;;;;9.93;87.54;100645.59;6361796;28;20528;-71
2021/05/18 01:22:05;;;;;;;8.32;7.38;;;;;;;9.87;87.84;100633.66;6344489;28;20205;-71
2021/05/18 01:25:20;;;;;;;7.97;7.15;;;;;;;9.87;87.90;100628.22;6361740;28;20374;-71
2021/05/18 01:28:27;;;;;;;7.75;7.05;;;;;;;10.00;88.15;100644.50;6343694;28;20206;-71
2021/05/18 01:31:32;;;;;;;7.47;6.78;;;;;;;10.02;87.86;100636.94;6343571;28;20217;-71
2021/05/18 01:34:36;;;;;;;8.88;7.65;;;;;;;10.03;87.67;100644.06;6362518;28;20182;-71
2021/05/18 01:37:42;;;;;;;8.52;7.10;;;;;;;10.03;88.25;100635.91;6362667;28;20182;-71
2021/05/18 01:44:09;;;;;;;16.92;9.05;;;;;;;10.00;88.71;100633.59;6363922;28;20411;-71
2021/05/18 01:47:13;;;;;;;16.40;9.10;;;;;;;9.73;90.64;100632.03;6349101;28;20511;-71
2021/05/18 01:50:23;;;;;;;12.25;9.05;;;;;;;9.98;89.58;100640.31;6366500;28;20371;-71
2021/05/18 01:53:28;;;;;;;13.13;8.73;;;;;;;9.93;89.40;100641.00;6348713;28;20224;-71
2021/05/18 01:56:41;;;;;;;18.60;9.57;;;;;;;9.87;90.11;100646.44;6367449;28;20317;-71
2021/05/18 01:59:47;;;;;;;14.88;10.80;;;;;;;9.89;89.60;100650.63;6348432;28;20197;-71
2021/05/18 02:03:00;;;;;;;14.77;9.43;;;;;;;9.79;89.76;100639.38;6366483;28;20222;-71
2021/05/18 02:06:07;;;;;;;14.27;9.10;;;;;;;9.80;90.41;100649.22;6348432;28;20198;-71
2021/05/18 02:09:18;;;;;;;12.95;9.00;;;;;;;9.98;89.65;100646.63;6347981;28;20198;-69
2021/05/18 02:12:24;;;;;;;15.43;9.30;;;;;;;10.01;89.64;100662.50;6348303;28;20569;-69
2021/05/18 02:15:39;;;;;;;13.63;9.23;;;;;;;9.96;89.21;100645.97;6348385;28;20202;-69
2021/05/18 02:18:58;;;;;;;11.55;8.88;;;;;;;10.24;87.91;100674.81;6348336;28;20198;-69
2021/05/18 02:25:33;;;;;;;13.30;8.77;;;;;;;10.17;88.51;100665.84;6345701;28;20432;-70
2021/05/18 02:28:42;;;;;;;13.25;9.13;;;;;;;10.28;87.51;100668.69;6347919;28;20243;-69
2021/05/18 02:31:46;;;;;;;16.13;10.20;;;;;;;10.24;87.42;100666.63;6348211;28;20256;-69
2021/05/18 02:35:06;;;;;;;15.20;9.85;;;;;;;10.19;88.13;100669.19;6347755;28;20247;-69
2021/05/18 02:38:10;;;;;;;15.90;10.48;;;;;;;10.25;87.69;100684.66;6365354;28;20182;-69
2021/05/18 02:41:18;;;;;;;13.57;9.75;;;;;;;10.29;87.65;100688.63;6347756;28;20209;-69
2021/05/18 02:44:37;;;;;;;14.15;9.80;;;;;;;10.35;87.16;100685.03;6347242;28;20385;-69
2021/05/18 02:51:03;;;;;;;12.20;9.15;;;;;;;9.91;88.42;100651.25;6366343;28;20245;-69
2021/05/18 02:54:26;;;;;;;15.02;10.40;;;;;;;10.26;88.46;100675.44;6347420;28;20205;-69
2021/05/18 02:57:37;;;;;;;18.30;10.88;;;;;;;10.08;89.22;100685.16;6347848;28;20239;-69
2021/05/18 03:00:41;;;;;;;13.35;9.85;;;;;;;10.16;88.00;100666.88;6347182;28;20198;-69
2021/05/18 03:03:44;;;;;;;13.43;9.73;;;;;;;9.98;89.07;100694.84;6384736;27;20225;-69
2021/05/18 03:06:50;;;;;;;14.95;9.88;;;;;;;9.84;90.38;100704.94;6373306;27;20228;-70
2021/05/18 03:09:55;;;;;;;16.55;10.48;;;;;;;10.03;90.07;100698.59;6372084;27;20197;-69
2021/05/18 03:13:01;;;;;;;17.33;10.77;;;;;;;10.11;89.35;100702.13;6391026;27;20209;-69
2021/05/18 03:16:05;;;;;;;11.98;9.65;;;;;;;10.07;89.92;100699.81;6391149;27;20185;-70
2021/05/18 03:19:12;;;;;;;14.70;10.07;;;;;;;10.17;88.91;100699.38;6389898;27;20435;-69
2021/05/18 03:22:16;;;;;;;16.90;10.65;;;;;;;10.23;88.94;100703.13;6390913;27;20185;-69
2021/05/18 03:25:20;;;;;;;15.35;10.60;;;;;;;10.25;89.00;100706.47;6390733;27;20181;-70
2021/05/18 03:28:24;;;;;;;15.95;11.02;;;;;;;10.09;89.67;100708.59;6391107;27;20203;-69
2021/05/18 03:34:50;;;;;;;16.98;10.75;;;;;;;9.86;91.06;100691.94;6390576;27;20188;-69
2021/05/18 03:37:56;;;;;;;15.68;11.15;;;;;;;9.92;91.24;100703.88;6390565;27;20181;-69
2021/05/18 03:41:03;;;;;;;16.30;11.00;;;;;;;10.07;90.79;100716.16;6389664;27;20219;-69
2021/05/18 03:44:16;;;;;;;14.65;10.63;;;;;;;10.08;91.03;100712.41;6389214;27;20185;-69
2021/05/18 03:54:10;;;;;;;18.02;11.63;;;;;;;10.44;88.24;100721.88;6390021;27;20236;-69
2021/05/18 04:04:05;;;;;;;23.13;12.70;;;;;;;10.50;88.77;100729.22;6362718;28;20234;-70
2021/05/18 04:11:02;;;;;;;22.85;12.45;;;;;;;10.54;89.00;100738.63;6363865;28;20391;-69
2021/05/18 04:17:31;;;;;;;20.48;12.70;;;;;;;10.33;89.70;100747.13;6364365;28;20189;-70
2021/05/18 04:20:43;;;;;;;22.13;12.48;;;;;;;10.53;88.81;100742.38;6363792;28;20182;-71
2021/05/18 04:23:52;;;;;;;23.67;12.25;;;;;;;10.51;88.75;100747.22;6363706;28;20190;-71
2021/05/18 04:50:57;;;;;;;19.13;11.80;;;;;;;10.75;87.75;100751.91;6362912;28;20220;-70
2021/05/18 04:54:38;;;;;;;17.70;10.77;;;;;;;10.85;87.27;100751.41;6363245;28;20234;-70
2021/05/18 05:01:08;;;;;;;23.55;10.63;;;;;;;10.83;86.84;100743.47;6361073;28;20205;-70
2021/05/18 05:06:10;;;;;;;17.00;10.25;;;;;;;11.01;85.47;100754.47;6383622;27;20236;-70
2021/05/18 05:07:52;;;;;;;14.30;10.18;;;;;;;11.17;84.17;100755.81;6387148;27;20525;-70
2021/05/18 05:14:20;;;;;;;14.20;10.20;;;;;;;11.19;84.83;100749.06;6388510;27;20227;-70
2021/05/18 05:17:24;;;;;;;18.15;10.00;;;;;;;11.03;85.74;100743.31;6387979;27;20182;-71
2021/05/18 05:20:29;;;;;;;21.20;9.90;;;;;;;10.98;85.72;100735.78;6387817;27;20181;-70
2021/05/18 05:23:34;;;;;;;16.90;10.20;;;;;;;11.12;85.31;100737.34;6387108;27;20230;-69
2021/05/18 05:26:39;;;;;;;20.23;10.05;;;;;;;11.24;84.93;100730.13;6387821;28;20266;-69
2021/05/18 05:29:42;;;;;;;14.27;9.73;;;;;;;10.97;85.44;100704.09;6386712;28;20181;-69
2021/05/18 05:32:46;;;;;;;16.08;10.45;;;;;;;11.28;85.54;100731.31;6386764;28;20211;-69
2021/05/18 05:35:50;;;;;;;13.55;10.30;;;;;;;11.43;84.50;100716.50;6387794;28;20253;-70
2021/05/18 05:39:01;;;;;;;14.52;10.43;;;;;;;11.32;84.76;100699.75;6387492;28;20402;-69
2021/05/18 05:42:06;;;;;;;12.93;10.10;;;;;;;11.38;84.91;100708.13;6387665;28;20250;-70
2021/05/18 05:45:11;;;;;;;20.55;9.55;;;;;;;11.69;83.27;100710.75;6387663;28;20213;-70
2021/05/18 05:48:14;;;;;;;12.18;9.85;;;;;;;11.82;82.20;100699.69;6386674;28;20362;-71
2021/05/18 05:51:18;;;;;;;13.10;9.07;;;;;;;12.05;81.64;100716.22;6387622;28;20218;-72
2021/05/18 05:54:23;;;;;;;14.57;10.00;;;;;;;12.03;82.07;100723.81;6387253;28;20294;-71
2021/05/18 05:57:27;;;;;;;18.58;10.23;;;;;;;12.09;83.10;100728.38;6387632;28;20181;-71
2021/05/18 06:00:31;;;;;;;;;;;;;;;12.26;81.96;100745.00;6388378;28;20123;-71
2021/05/18 06:03:35;;;;;;;;;;;;;;;12.27;81.95;100741.19;6386848;28;19915;-72
2021/05/18 06:06:39;;;;;;;18.75;12.05;;;;;;;12.29;82.62;100745.38;6387668;28;19942;-72
2021/05/18 06:09:45;;;;;;;15.30;11.07;;;;;;;12.51;82.22;100743.81;6387333;28;20182;-72
2021/05/18 06:12:58;;;;;;;;;;;;;;;12.65;80.46;100743.63;6369452;28;20043;-72
2021/05/18 06:43:28;;;;;;;12.85;8.05;;;;;;;13.58;78.23;100761.94;6390537;27;20239;-70
2021/05/18 06:46:45;;;;;;;15.05;8.18;;;;;;;13.43;77.17;100758.81;6391802;27;20261;-70
2021/05/18 06:49:57;;;;;;;10.57;8.00;;;;;;;13.48;77.17;100767.16;6391994;27;20182;-72
2021/05/18 06:53:01;;;;;;;11.65;8.10;;;;;;;13.54;77.09;100755.25;6391291;27;20206;-70
2021/05/18 06:56:06;;;;;;;8.82;7.25;;;;;;;13.51;76.94;100760.34;6391141;27;20191;-70
2021/05/18 07:02:44;;;;;;;9.88;7.43;;;;;;;13.76;76.68;100741.78;6342552;27;20258;-70
2021/05/18 07:05:55;;;;;;;7.78;7.07;;;;;;;13.91;75.30;100752.25;6391524;27;20256;-70
2021/05/18 07:08:59;;;;;;;10.95;8.13;;;;;;;14.02;75.70;100768.66;6390599;27;20249;-71
2021/05/18 07:12:05;;;;;;;10.02;7.28;;;;;;;14.10;76.19;100770.19;6389956;27;20368;-71
2021/05/18 07:15:11;;;;;;;11.70;7.50;;;;;;;14.16;75.34;100763.75;6391242;27;20270;-71
2021/05/18 07:18:15;;;;;;;12.10;7.55;;;;;;;14.27;74.89;100771.13;6371839;27;20197;-71
2021/05/18 07:21:20;;;;;;;8.05;7.20;;;;;;;14.39;74.87;100770.06;6389662;27;20496;-71
2021/05/18 07:24:28;;;;;;;12.85;6.47;;;;;;;14.44;74.74;100774.81;6389750;27;20193;-72
2021/05/18 07:27:32;;;;;;;6.65;6.00;;;;;;;14.56;72.64;100780.28;6390543;27;20181;-71
2021/05/18 07:30:38;;;;;;;13.95;5.80;;;;;;;14.63;71.50;100787.28;6390248;27;20187;-71
2021/05/18 07:33:42;;;;;;;5.40;5.00;;;;;;;14.72;71.64;100783.06;6390878;27;20247;-71
2021/05/18 07:36:46;;;;;;;5.13;4.60;;;;;;;14.70;70.81;100774.22;6390717;27;20189;-71
2021/05/18 07:39:49;;;;;;;4.47;4.05;;;;;;;14.64;69.13;100786.19;6371837;27;20201;-71
2021/05/18 07:42:53;;;;;;;4.53;4.22;;;;;;;14.74;69.97;100789.13;6389279;27;20186;-71
2021/05/18 07:46:00;;;;;;;4.45;4.05;;;;;;;14.71;68.43;100794.28;6390082;27;20181;-71
2021/05/18 07:59:24;;;;;;;3.45;3.25;;;;;;;15.15;68.04;100784.41;6390027;27;20189;-70
2021/05/18 08:05:17;;;;;;;3.53;3.33;;;;;;;15.25;67.36;100785.41;6389694;27;20214;-70
2021/05/18 08:05:56;;;;;;;6.95;3.60;;;;;;;15.43;67.21;100776.09;6389518;27;20246;-70
2021/05/18 08:09:00;;;;;;;3.50;3.30;;;;;;;15.44;66.63;100778.56;6389924;27;20269;-71
2021/05/18 08:12:05;;;;;;;4.45;3.55;;;;;;;15.48;66.17;100773.44;6389525;27;20219;-71
2021/05/18 08:15:31;;;;;;;3.65;3.55;;;;;;;15.54;67.24;100788.94;6388300;27;20431;-71
2021/05/18 09:49:11;;;;;;;3.22;1.90;;;;;;;16.34;55.87;100772.75;6387963;28;20182;-71
2021/05/18 10:35:50;;;;;;;4.03;1.55;;;;;;;17.35;47.89;100749.88;6366076;28;20210;-71
2021/05/18 10:39:14;;;;;;;1.88;1.52;;;;;;;17.44;46.66;100751.03;6366486;28;20183;-71
2021/05/18 10:42:18;;;;;;;1.98;1.55;;;;;;;17.46;46.87;100757.09;6365073;28;20483;-70
2021/05/18 10:45:22;;;;;;;1.48;1.35;;;;;;;17.63;46.53;100767.19;6365873;28;20249;-70
2021/05/18 10:48:26;;;;;;;;;;;;;;;17.68;46.85;100764.47;6366103;28;20182;-69
2021/05/18 10:51:33;;;;;;;;;;;;;;;17.81;46.46;100762.09;6365203;28;20257;-71
2021/05/18 10:54:38;;;;;;;1.10;1.10;;;;;;;17.89;45.24;100752.47;6364674;28;20224;-70
2021/05/18 10:57:42;;;;;;;3.03;1.40;;;;;;;17.88;45.40;100748.88;6364943;28;20448;-70
2021/05/18 11:00:45;;;;;;;1.87;1.50;;;;;;;17.92;46.55;100758.28;6365748;28;20190;-70
2021/05/18 11:03:50;;;;;;;4.80;1.65;;;;;;;18.08;47.20;100746.22;6364901;28;20205;-70
2021/05/18 11:06:56;;;;;;;12.77;1.80;;;;;;;18.17;47.08;100749.31;6365303;28;20190;-70
2021/05/18 11:10:01;;;;;;;2.58;1.77;;;;;;;18.04;49.03;100739.59;6347380;28;20197;-70
2021/05/18 11:13:09;;;;;;;1.90;1.70;;;;;;;17.98;49.67;100753.63;6365546;28;20190;-70
2021/05/18 11:16:15;;;;;;;3.83;1.75;;;;;;;17.85;50.33;100745.81;6363982;28;20237;-70
2021/05/18 11:19:18;;;;;;;2.00;1.85;;;;;;;17.90;50.18;100759.63;6365545;28;20188;-71
2021/05/18 11:25:47;;;;;;;2.03;2.00;;;;;;;17.76;50.53;100752.94;6364914;28;20204;-70
2021/05/18 11:28:52;;;;;;;2.65;1.90;;;;;;;17.88;50.77;100745.28;6365083;28;20183;-71
2021/05/18 11:31:55;;;;;;;2.35;2.28;;;;;;;17.98;49.70;100742.59;6365076;28;20182;-71
2021/05/18 11:35:02;;;;;;;2.40;1.83;;;;;;;18.19;50.10;100741.59;6364093;28;20259;-71
2021/05/18 11:38:14;;;;;;;1.95;1.85;;;;;;;18.20;49.20;100743.25;6364870;28;20252;-71
2021/05/18 11:41:19;;;;;;;2.95;1.85;;;;;;;18.33;49.36;100742.78;6364918;28;20292;-71
2021/05/18 11:44:34;;;;;;;1.70;1.70;;;;;;;18.45;48.59;100748.88;6364396;28;20247;-71
2021/05/18 11:47:38;;;;;;;1.50;1.45;;;;;;;18.29;46.78;100752.69;6346065;28;20413;-71
2021/05/18 11:50:42;;;;;;;2.17;1.73;;;;;;;18.20;47.35;100751.53;6363433;28;20420;-70
2021/05/18 11:53:49;;;;;;;1.70;1.60;;;;;;;18.25;48.20;100757.09;6364759;28;20249;-71
2021/05/18 11:56:53;;;;;;;3.97;1.70;;;;;;;18.33;48.31;100753.81;6364319;28;20273;-71
2021/05/18 11:59:57;;;;;;;1.77;1.70;;;;;;;18.45;48.29;100756.34;6364326;28;20190;-71
2021/05/18 12:03:06;;;;;;;2.13;1.55;;;;;;;18.46;46.75;100758.81;6364435;28;20230;-71
2021/05/18 12:06:10;;;;;;;5.20;1.80;;;;;;;18.37;47.47;100751.31;6363011;28;20369;-71
2021/05/18 12:09:15;;;;;;;2.85;1.70;;;;;;;18.33;47.48;100745.53;6364377;28;20182;-71
2021/05/18 12:12:19;;;;;;;1.65;1.65;;;;;;;18.44;47.49;100749.97;6362982;28;20186;-71
2021/05/18 12:15:25;;;;;;;3.35;1.83;;;;;;;18.40;47.82;100745.25;6362707;28;20210;-70
2021/05/18 12:18:33;;;;;;;2.15;1.42;;;;;;;18.50;47.71;100745.31;6362806;28;20228;-70
2021/05/18 12:21:37;;;;;;;1.92;1.60;;;;;;;18.60;47.78;100743.44;6362791;28;20401;-71
2021/05/18 12:24:43;;;;;;;2.10;1.73;;;;;;;18.52;47.35;100743.13;6363989;28;20334;-70
2021/05/18 12:27:47;;;;;;;1.98;1.65;;;;;;;18.61;47.70;100745.09;6362385;28;20190;-70
2021/05/18 12:30:50;;;;;;;3.40;1.50;;;;;;;18.56;46.05;100747.84;6363458;28;20214;-71
2021/05/18 12:33:54;;;;;;;6.30;1.70;;;;;;;18.58;46.42;100733.75;6362467;28;20369;-70
2021/05/18 12:36:58;;;;;;;1.80;1.70;;;;;;;18.60;48.24;100757.25;6363315;28;20213;-71
2021/05/18 12:40:09;;;;;;;4.10;1.73;;;;;;;18.47;48.35;100749.47;6362554;28;20224;-70
2021/05/18 12:43:21;;;;;;;1.67;1.63;;;;;;;18.61;48.62;100745.09;6362302;28;20354;-71
2021/05/18 12:46:25;;;;;;;1.58;1.58;;;;;;;18.82;48.39;100756.22;6363092;28;20193;-70
2021/05/18 12:49:34;;;;;;;1.88;1.77;;;;;;;18.82;46.33;100756.22;6363200;28;20227;-71
2021/05/18 12:52:39;;;;;;;1.83;1.70;;;;;;;18.85;46.71;100750.13;6363154;28;20198;-71
2021/05/18 12:55:44;;;;;;;1.40;1.40;;;;;;;19.03;46.76;100752.38;6361657;28;20206;-70
2021/05/18 12:59:04;;;;;;;1.70;1.63;;;;;;;18.97;46.75;100747.94;6361576;28;20461;-70
2021/05/18 13:02:08;;;;;;;1.55;1.55;;;;;;;18.93;46.97;100752.34;6362469;28;20234;-71
2021/05/18 13:05:19;;;;;;;1.50;1.50;;;;;;;18.82;46.06;100750.69;6362808;28;20219;-71
2021/05/18 13:08:29;;;;;;;3.03;1.70;;;;;;;18.83;46.75;100746.78;6362806;28;20182;-71
2021/05/18 13:14:57;;;;;;;1.85;1.60;;;;;;;19.08;46.88;100755.16;6361283;28;20206;-71
2021/05/18 13:18:03;;;;;;;2.45;1.70;;;;;;;18.85;47.09;100750.13;6362442;28;20238;-71
2021/05/18 13:21:20;;;;;;;2.08;1.95;;;;;;;19.08;46.69;100760.69;6361262;28;20368;-71
2021/05/18 13:26:25;;;;;;;1.92;1.92;;;;;;;19.18;46.36;100755.16;6361083;28;20367;-71
2021/05/18 13:27:55;;;;;;;1.50;1.40;;;;;;;19.37;45.16;100759.06;6360983;28;20400;-71
2021/05/18 13:30:59;;;;;;;1.50;1.50;;;;;;;19.48;46.02;100760.72;6361101;28;20213;-71
2021/05/18 13:34:04;;;;;;;1.73;1.73;;;;;;;20.35;41.57;100740.88;6362034;28;20249;-71
2021/05/18 13:37:19;;;;;;;2.28;1.40;;;;;;;21.34;40.75;100755.53;6362175;28;20209;-71
2021/05/18 13:40:40;;;;;;;1.67;1.67;;;;;;;21.54;38.81;100752.59;6365471;28;20182;-71
2021/05/18 13:43:44;;;;;;;1.30;1.30;;;;;;;20.93;40.59;100760.53;6367218;28;20182;-71
2021/05/18 13:46:49;;;;;;;1.40;1.40;;;;;;;20.37;41.88;100758.03;6367288;28;20301;-71
2021/05/18 13:49:53;;;;;;;1.95;1.60;;;;;;;20.26;42.62;100755.59;6366153;28;20280;-72
2021/05/18 13:52:59;;;;;;;1.40;1.40;;;;;;;19.83;42.99;100754.28;6367313;28;20186;-71
2021/05/18 13:56:03;;;;;;;1.30;1.30;;;;;;;19.70;42.24;100758.47;6365685;28;20438;-71
2021/05/18 13:59:08;;;;;;;1.95;1.40;;;;;;;19.65;42.80;100758.47;6348326;28;20198;-72
2021/05/18 14:02:13;;;;;;;1.40;1.40;;;;;;;19.78;42.72;100760.66;6371225;27;20243;-72
2021/05/18 14:05:18;;;;;;;1.27;1.23;;;;;;;19.41;43.21;100754.63;6391932;27;20253;-72
2021/05/18 14:08:25;;;;;;;2.78;1.60;;;;;;;19.56;43.97;100751.03;6392594;27;20276;-71
2021/05/18 14:11:29;;;;;;;8.35;2.08;;;;;;;19.75;43.10;100755.69;6392308;27;20189;-71
2021/05/18 14:14:33;;;;;;;2.45;1.90;;;;;;;19.91;42.91;100760.09;6392167;27;20181;-71
2021/05/18 14:17:37;;;;;;;1.40;1.40;;;;;;;19.80;41.79;100758.44;6391866;27;20209;-71
2021/05/18 14:20:41;;;;;;;1.85;1.35;;;;;;;19.78;40.95;100760.66;6390870;27;20371;-71
2021/05/18 14:23:53;;;;;;;3.20;1.45;;;;;;;20.04;41.49;100752.31;6390831;27;20391;-71
2021/05/18 14:26:56;;;;;;;2.58;1.85;;;;;;;19.99;41.40;100756.75;6392047;27;20181;-71
2021/05/18 14:30:01;;;;;;;1.65;1.65;;;;;;;19.91;41.59;100737.94;6391432;27;20220;-71
2021/05/18 14:33:07;;;;;;;1.75;1.63;;;;;;;19.89;41.39;100744.88;6390631;27;20188;-71
2021/05/18 14:36:12;;;;;;;1.67;1.35;;;;;;;20.02;41.61;100751.75;6391360;27;20237;-72
2021/05/18 14:39:49;;;;;;;1.45;1.35;;;;;;;19.75;41.33;100750.16;6390617;27;20369;-72
2021/05/18 14:42:54;;;;;;;1.50;1.35;;;;;;;19.76;41.48;100757.38;6390696;27;20189;-72
2021/05/18 14:46:18;;;;;;;1.63;1.48;;;;;;;19.82;42.49;100756.22;6390189;27;20242;-72
2021/05/18 14:53:52;;;;;;;2.17;1.50;;;;;;;19.92;41.26;100753.47;6286993;28;20521;-69
2021/05/18 14:57:15;;;;;;;2.40;1.60;;;;;;;19.92;41.78;100745.16;6300465;27;20406;-71
2021/05/18 15:00:20;;;;;;;1.95;1.50;;;;;;;20.04;41.61;100746.75;6391257;27;20185;-70
2021/05/18 15:03:34;;;;;;;1.60;1.60;;;;;;;20.25;41.54;100753.94;6389729;27;20225;-71
2021/05/18 15:06:40;;;;;;;1.60;1.60;;;;;;;20.32;41.77;100743.38;6372213;27;20224;-71
2021/05/18 15:09:44;;;;;;;2.58;1.70;;;;;;;20.24;41.97;100753.09;6390950;27;20182;-71
2021/05/18 15:12:47;;;;;;;1.83;1.75;;;;;;;20.31;42.23;100739.75;6391163;27;20189;-71
2021/05/18 15:15:51;;;;;;;2.25;1.65;;;;;;;20.24;42.41;100742.00;6389651;27;20181;-72
2021/05/18 15:19:03;;;;;;;1.80;1.80;;;;;;;20.28;41.46;100742.28;6389513;27;20378;-71
2021/05/18 15:22:09;;;;;;;4.25;1.75;;;;;;;20.30;41.26;100735.34;6391263;27;20213;-71
2021/05/18 15:25:14;;;;;;;4.32;1.50;;;;;;;20.22;40.70;100744.22;6390731;27;20188;-71
2021/05/18 15:28:19;;;;;;;1.50;1.50;;;;;;;20.12;41.34;100748.97;6389604;27;20209;-71
2021/05/18 15:31:23;;;;;;;1.38;1.38;;;;;;;20.20;41.39;100746.44;6390852;27;20188;-71
2021/05/18 15:34:28;;;;;;;1.60;1.60;;;;;;;19.99;40.53;100754.00;6389702;27;20182;-71
2021/05/18 15:37:31;;;;;;;1.58;1.40;;;;;;;19.86;40.76;100746.25;6390282;27;20220;-71
2021/05/18 15:40:35;;;;;;;1.70;1.70;;;;;;;20.10;41.67;100740.09;6390495;27;20245;-71
2021/05/18 15:43:39;;;;;;;4.32;1.55;;;;;;;20.29;41.40;100741.16;6389220;27;20524;-71
2021/05/18 15:46:44;;;;;;;3.17;1.77;;;;;;;20.30;41.28;100734.53;6389014;27;20268;-71
2021/05/18 15:49:49;;;;;;;1.83;1.40;;;;;;;20.19;40.98;100735.63;6389965;27;20181;-71
2021/05/18 15:52:52;;;;;;;3.38;1.35;;;;;;;20.04;41.68;100736.53;6390027;27;20241;-71
2021/05/18 15:55:57;;;;;;;1.40;1.40;;;;;;;20.15;40.66;100742.84;6388839;27;20464;-71
2021/05/18 15:59:01;;;;;;;4.53;1.90;;;;;;;20.25;41.02;100753.94;6389562;27;20273;-72
2021/05/18 16:02:07;;;;;;;2.85;1.70;;;;;;;20.09;41.60;100739.28;6388940;27;20233;-72
2021/05/18 16:05:14;;;;;;;1.48;1.48;;;;;;;20.09;42.36;100741.22;6389312;27;20181;-72
2021/05/18 16:12:14;;;;;;;1.85;1.77;;;;;;;19.92;42.29;100749.84;6383784;27;20197;-72
2021/05/18 16:15:32;;;;;;;1.52;1.42;;;;;;;19.83;41.74;100752.34;6389315;27;20178;-72
2021/05/18 16:18:38;;;;;;;1.50;1.50;;;;;;;19.79;41.85;100756.81;6387981;27;20209;-71
2021/05/18 16:21:43;;;;;;;2.80;1.48;;;;;;;19.65;41.91;100760.41;6389209;27;20181;-71
2021/05/18 16:24:48;;;;;;;1.80;1.70;;;;;;;19.62;43.16;100767.31;6388115;27;20188;-71
2021/05/18 16:27:51;;;;;;;2.05;1.50;;;;;;;19.67;43.92;100764.56;6369646;27;20201;-71
2021/05/18 16:30:57;;;;;;;1.73;1.67;;;;;;;19.61;43.93;100768.47;6388500;27;20226;-71
2021/05/18 16:34:01;;;;;;;3.55;1.73;;;;;;;19.62;43.92;100759.03;6388236;27;20188;-71
2021/05/18 16:37:05;;;;;;;2.25;1.55;;;;;;;19.61;44.58;100768.47;6388700;27;20213;-71
2021/05/18 16:40:11;;;;;;;1.67;1.67;;;;;;;19.55;45.21;100766.78;6387506;27;20348;-71
2021/05/18 16:43:16;;;;;;;3.75;2.08;;;;;;;19.43;45.31;100759.88;6371296;27;20228;-71
2021/05/18 16:46:19;;;;;;;2.97;2.78;;;;;;;19.36;46.25;100765.69;6387262;27;20418;-73
2021/05/18 16:49:23;;;;;;;1.42;1.42;;;;;;;19.09;44.76;100759.56;6389027;27;20216;-72
2021/05/18 16:52:28;;;;;;;2.00;1.73;;;;;;;19.20;45.04;100764.00;6388820;27;20248;-71
2021/05/18 16:55:31;;;;;;;1.90;1.80;;;;;;;19.29;45.82;100762.34;6388305;27;20245;-71
2021/05/18 16:58:36;;;;;;;1.75;1.65;;;;;;;19.37;46.39;100764.59;6387965;27;20231;-71
2021/05/18 17:01:40;;;;;;;1.75;1.75;;;;;;;19.34;45.89;100759.56;6380040;27;20235;-72
2021/05/18 17:04:48;;;;;;;1.85;1.73;;;;;;;19.37;47.30;100759.06;6380540;27;20203;-72
2021/05/18 17:07:53;;;;;;;1.88;1.77;;;;;;;19.34;47.68;100759.56;6388092;27;20252;-73
2021/05/18 17:10:57;;;;;;;4.13;1.70;;;;;;;19.27;46.85;100759.00;6387172;27;20185;-73
2021/05/18 17:14:01;;;;;;;2.08;2.00;;;;;;;19.23;46.80;100769.00;6386836;27;20473;-72
2021/05/18 17:17:05;;;;;;;2.30;2.08;;;;;;;19.30;47.13;100762.06;6387646;27;20209;-72
2021/05/18 17:20:11;;;;;;;1.90;1.80;;;;;;;19.34;46.50;100767.88;6387559;27;20181;-71
2021/05/18 17:23:16;;;;;;;1.50;1.48;;;;;;;19.33;45.95;100763.47;6388305;27;20181;-71
2021/05/18 17:26:20;;;;;;;3.55;1.88;;;;;;;19.12;45.92;100772.84;6387213;27;20203;-71
2021/05/18 17:29:24;;;;;;;1.88;1.63;;;;;;;18.97;45.71;100759.00;6387888;27;20192;-72
2021/05/18 17:32:28;;;;;;;1.63;1.60;;;;;;;18.88;45.85;100760.63;6387703;27;20226;-72
2021/05/18 17:35:32;;;;;;;1.67;1.60;;;;;;;18.96;46.37;100766.44;6388115;28;20252;-72
2021/05/18 17:38:37;;;;;;;1.60;1.60;;;;;;;18.98;47.18;100760.63;6387715;28;20205;-72
2021/05/18 17:41:41;;;;;;;1.63;1.63;;;;;;;18.96;45.90;100762.84;6387948;28;20192;-72
2021/05/18 17:44:45;;;;;;;1.52;1.52;;;;;;;18.89;46.24;100757.59;6387909;28;20196;-72
2021/05/18 17:47:49;;;;;;;1.80;1.80;;;;;;;18.92;46.70;100767.28;6369092;28;20224;-72
2021/05/18 17:50:53;;;;;;;1.65;1.65;;;;;;;18.81;46.87;100765.59;6387045;28;20181;-71
2021/05/18 17:53:57;;;;;;;5.13;1.70;;;;;;;18.80;47.48;100758.41;6387556;28;20185;-72
2021/05/18 17:57:01;;;;;;;4.72;1.95;;;;;;;18.70;47.33;100757.28;6386316;28;20374;-72
2021/05/18 18:00:08;;;;;;;3.30;1.40;;;;;;;18.62;45.92;100757.81;6387471;28;20181;-73
2021/05/18 18:03:19;;;;;;;1.92;1.60;;;;;;;18.60;47.25;100757.25;6387039;28;20245;-70
2021/05/18 18:06:23;;;;;;;3.22;1.50;;;;;;;18.48;46.70;100750.31;6387811;28;20182;-70
2021/05/18 18:09:28;;;;;;;1.58;1.48;;;;;;;18.37;46.51;100765.97;6387494;28;20185;-71
2021/05/18 18:12:32;;;;;;;1.60;1.50;;;;;;;18.43;47.03;100764.91;6386258;28;20182;-72
2021/05/18 18:15:35;;;;;;;3.03;1.20;;;;;;;18.43;47.83;100753.84;6386484;28;20257;-71
2021/05/18 18:18:39;;;;;;;5.28;1.58;;;;;;;18.40;47.15;100770.97;6387106;28;20209;-71
2021/05/18 18:21:42;;;;;;;1.67;1.50;;;;;;;18.25;46.98;100770.91;6386700;28;20493;-71
2021/05/18 18:24:47;;;;;;;1.40;1.40;;;;;;;18.17;47.21;100771.41;6386169;27;20182;-71
2021/05/18 18:27:51;;;;;;;1.50;1.50;;;;;;;18.08;47.33;100767.47;6391761;27;20294;-71
2021/05/18 18:30:55;;;;;;;2.10;2.00;;;;;;;18.11;47.73;100772.47;6391609;27;20188;-71
2021/05/18 18:33:59;;;;;;;2.53;1.73;;;;;;;18.01;47.77;100761.38;6392105;27;20188;-71
2021/05/18 18:37:06;;;;;;;2.83;2.83;;;;;;;18.16;48.23;100780.78;6391521;27;20227;-71
2021/05/18 18:40:12;;;;;;;4.05;1.90;;;;;;;18.12;49.50;100774.16;6390887;27;20220;-71
2021/05/18 18:43:16;;;;;;;1.60;1.60;;;;;;;18.03;48.59;100781.25;6390522;27;20405;-71
2021/05/18 18:46:20;;;;;;;1.33;1.33;;;;;;;18.02;49.03;100780.44;6390317;27;20182;-71
2021/05/18 18:49:26;;;;;;;2.75;1.63;;;;;;;18.02;49.48;100771.31;6391373;27;20185;-70